Time;durP1;ratioP1;P1;durP2;ratioP2;P2;SDS_P1;SDS_P2;PMS_P1;PMS_P2;Temp;Humidity;BMP_temperature;BMP_pressure;BME280_temperature;BME280_humidity;BME280_pressure;Samples;Min_cycle;Max_cycle;Signal;HPM_P1;HPM_P2
2023/09/10 00:01:40;;;;;;;30.00;27.07;;;;;;;;;;2616011;54;20402;-76
2023/09/10 00:07:09;;;;;;;28.40;25.67;;;;;;;;;;2615596;54;20391;-76
2023/09/10 00:12:40;;;;;;;30.77;27.83;;;;;;;;;;2614957;54;20391;-76
2023/09/10 00:18:11;;;;;;;29.40;26.73;;;;;;;;;;2615478;54;20387;-77
2023/09/10 00:23:41;;;;;;;28.83;26.20;;;;;;;;;;2616036;54;20463;-79
2023/09/10 00:29:11;;;;;;;33.70;30.27;;;;;;;;;;2615774;54;20394;-76
2023/09/10 00:34:41;;;;;;;32.30;29.40;;;;;;;;;;2615570;31;20827;-76
2023/09/10 00:40:11;;;;;;;31.47;28.37;;;;;;;;;;2616118;46;20506;-76
2023/09/10 00:45:41;;;;;;;31.83;29.13;;;;;;;;;;2614353;54;20471;-77
2023/09/10 00:51:11;;;;;;;32.07;28.97;;;;;;;;;;2615278;54;20391;-77
2023/09/10 00:56:41;;;;;;;31.50;27.90;;;;;;;;;;2615564;54;21028;-77
2023/09/10 01:02:13;;;;;;;30.10;27.40;;;;;;;;;;2614601;54;20937;-77
2023/09/10 01:07:43;;;;;;;30.83;27.90;;;;;;;;;;2615048;54;20511;-77
2023/09/10 01:13:18;;;;;;;32.50;29.40;;;;;;;;;;2614584;54;20379;-76
2023/09/10 01:18:50;;;;;;;29.80;26.87;;;;;;;;;;2616311;54;20403;-76
2023/09/10 01:30:28;;;;;;;27.80;25.30;;;;;;;;;;2615784;54;20540;-75
2023/09/10 01:36:07;;;;;;;29.93;27.00;;;;;;;;;;2615335;54;20395;-77
2023/09/10 01:41:39;;;;;;;31.50;28.27;;;;;;;;;;2614264;54;20398;-76
2023/09/10 01:47:08;;;;;;;29.37;26.67;;;;;;;;;;2615660;54;20375;-75
2023/09/10 01:52:38;;;;;;;31.67;28.67;;;;;;;;;;2614215;54;20516;-77
2023/09/10 01:58:08;;;;;;;31.40;28.43;;;;;;;;;;2615377;39;20762;-76
2023/09/10 02:03:37;;;;;;;36.53;26.87;;;;;;;;;;2612535;39;20812;-77
2023/09/10 02:09:07;;;;;;;31.40;28.67;;;;;;;;;;2612927;54;20412;-77
2023/09/10 02:14:37;;;;;;;32.80;29.83;;;;;;;;;;2613737;39;20799;-77
2023/09/10 02:20:10;;;;;;;34.60;31.20;;;;;;;;;;2613162;54;20390;-77
2023/09/10 02:29:11;;;;;;;32.40;29.17;;;;;;;;;;2615140;54;20411;-78
2023/09/10 02:31:56;;;;;;;32.73;29.63;;;;;;;;;;2614690;54;20407;-76
2023/09/10 02:34:22;;;;;;;32.33;29.20;;;;;;;;;;2613545;39;20942;-78
2023/09/10 02:39:52;;;;;;;32.63;29.63;;;;;;;;;;2615625;54;20407;-77
2023/09/10 02:45:22;;;;;;;33.27;30.20;;;;;;;;;;2614190;54;20409;-77
2023/09/10 02:50:53;;;;;;;30.27;27.73;;;;;;;;;;2614826;54;20387;-77
2023/09/10 02:56:23;;;;;;;32.63;29.80;;;;;;;;;;2615400;54;20374;-77
2023/09/10 03:01:54;;;;;;;33.13;29.90;;;;;;;;;;2614670;54;20430;-80
2023/09/10 03:07:23;;;;;;;32.50;29.40;;;;;;;;;;2615292;46;20419;-77
2023/09/10 03:12:53;;;;;;;33.67;30.57;;;;;;;;;;2613370;54;20430;-78
2023/09/10 03:18:22;;;;;;;33.17;29.97;;;;;;;;;;2615122;54;20422;-78
2023/09/10 03:23:52;;;;;;;35.43;31.87;;;;;;;;;;2614017;54;20414;-76
2023/09/10 03:38:49;;;;;;;35.47;32.17;;;;;;;;;;2614282;54;20394;-77
2023/09/10 03:44:18;;;;;;;37.73;33.80;;;;;;;;;;2614228;54;20394;-76
2023/09/10 03:49:47;;;;;;;35.57;31.97;;;;;;;;;;2611082;54;20387;-76
2023/09/10 03:55:16;;;;;;;38.03;34.33;;;;;;;;;;2611588;39;20916;-80
2023/09/10 04:00:45;;;;;;;35.90;32.50;;;;;;;;;;2610347;54;20624;-79
2023/09/10 04:06:14;;;;;;;37.13;33.37;;;;;;;;;;2610470;54;20418;-81
2023/09/10 04:11:43;;;;;;;37.33;33.70;;;;;;;;;;2612302;54;20475;-80
2023/09/10 04:17:17;;;;;;;37.90;34.20;;;;;;;;;;2613693;54;20422;-80
2023/09/10 04:22:47;;;;;;;36.53;32.57;;;;;;;;;;2613459;54;20531;-79
2023/09/10 04:28:16;;;;;;;36.93;33.33;;;;;;;;;;2615342;54;20410;-80
2023/09/10 04:33:46;;;;;;;35.53;32.13;;;;;;;;;;2614106;54;20452;-81
2023/09/10 04:39:16;;;;;;;36.37;32.83;;;;;;;;;;2615742;54;20433;-81
2023/09/10 04:44:47;;;;;;;32.17;29.30;;;;;;;;;;2614832;54;20514;-80
2023/09/10 04:50:16;;;;;;;32.50;29.37;;;;;;;;;;2615515;54;20459;-79
2023/09/10 04:55:52;;;;;;;34.17;30.70;;;;;;;;;;2614039;39;20508;-80
2023/09/10 05:01:22;;;;;;;33.00;29.73;;;;;;;;;;2615041;39;20898;-80
2023/09/10 05:06:51;;;;;;;33.37;30.03;;;;;;;;;;2613181;54;20391;-75
2023/09/10 05:12:22;;;;;;;34.60;31.00;;;;;;;;;;2614460;39;20830;-76
2023/09/10 05:17:52;;;;;;;34.00;30.80;;;;;;;;;;2614602;54;20423;-75
2023/09/10 05:23:22;;;;;;;34.60;31.20;;;;;;;;;;2613752;54;20994;-76
2023/09/10 05:34:59;;;;;;;33.07;29.90;;;;;;;;;;2614835;54;20379;-77
2023/09/10 05:40:29;;;;;;;35.20;31.97;;;;;;;;;;2614193;54;20363;-75
2023/09/10 05:45:58;;;;;;;35.33;31.90;;;;;;;;;;2613577;54;20421;-75
2023/09/10 05:51:28;;;;;;;36.17;32.57;;;;;;;;;;2612307;54;20461;-75
2023/09/10 05:56:57;;;;;;;33.27;30.30;;;;;;;;;;2614249;54;20480;-75
2023/09/10 06:02:27;;;;;;;34.23;31.17;;;;;;;;;;2614208;54;20500;-75
2023/09/10 06:07:57;;;;;;;31.23;28.57;;;;;;;;;;2613480;54;20396;-75
2023/09/10 06:13:28;;;;;;;29.90;27.07;;;;;;;;;;2613902;54;20375;-81
2023/09/10 06:18:58;;;;;;;30.57;27.70;;;;;;;;;;2613010;54;20391;-78
2023/09/10 06:24:27;;;;;;;28.50;26.10;;;;;;;;;;2611496;54;20506;-79
2023/09/10 06:33:35;;;;;;;28.03;25.60;;;;;;;;;;2611061;54;20433;-78
2023/09/10 06:39:05;;;;;;;25.70;23.90;;;;;;;;;;2613037;54;20941;-78
2023/09/10 06:44:35;;;;;;;24.67;22.70;;;;;;;;;;2613038;39;20790;-80
2023/09/10 06:50:05;;;;;;;24.43;22.87;;;;;;;;;;2611040;54;20458;-80
2023/09/10 06:55:34;;;;;;;27.87;25.57;;;;;;;;;;2612295;39;20834;-80
2023/09/10 07:01:08;;;;;;;27.00;25.17;;;;;;;;;;2607478;54;20410;-80
2023/09/10 07:06:38;;;;;;;26.93;24.90;;;;;;;;;;2614745;54;20435;-80
2023/09/10 07:12:08;;;;;;;26.37;24.53;;;;;;;;;;2615293;54;20394;-80
2023/09/10 07:17:38;;;;;;;26.37;24.27;;;;;;;;;;2615964;54;20446;-81
2023/09/10 07:23:07;;;;;;;27.47;25.33;;;;;;;;;;2616116;54;20391;-77
2023/09/10 07:28:37;;;;;;;25.20;23.57;;;;;;;;;;2616453;54;20961;-77
2023/09/10 07:34:06;;;;;;;26.83;25.17;;;;;;;;;;2616125;54;20445;-76
2023/09/10 07:39:36;;;;;;;26.90;25.20;;;;;;;;;;2616298;54;20439;-76
2023/09/10 07:45:14;;;;;;;26.70;24.90;;;;;;;;;;2616213;54;20394;-77
2023/09/10 07:56:41;;;;;;;26.17;24.40;;;;;;;;;;2615430;54;20374;-79
2023/09/10 08:02:11;;;;;;;27.20;25.57;;;;;;;;;;2615012;54;20395;-82
2023/09/10 08:07:40;;;;;;;27.70;25.40;;;;;;;;;;2615376;54;20499;-79
2023/09/10 08:13:12;;;;;;;24.93;23.33;;;;;;;;;;2616017;54;20466;-81
2023/09/10 08:18:42;;;;;;;25.57;23.93;;;;;;;;;;2615383;54;20386;-81
2023/09/10 08:24:12;;;;;;;23.80;22.37;;;;;;;;;;2615613;54;20378;-81
2023/09/10 08:29:42;;;;;;;25.37;23.77;;;;;;;;;;2615338;54;20391;-80
2023/09/10 08:38:49;;;;;;;24.43;22.83;;;;;;;;;;2615269;54;20954;-81
2023/09/10 08:44:20;;;;;;;23.37;21.97;;;;;;;;;;2615263;54;20840;-81
2023/09/10 08:49:51;;;;;;;23.20;21.60;;;;;;;;;;2614150;54;20391;-81
2023/09/10 08:55:21;;;;;;;21.60;19.97;;;;;;;;;;2614957;54;20506;-81
2023/09/10 09:00:51;;;;;;;23.23;21.87;;;;;;;;;;2616025;54;20392;-80
2023/09/10 09:06:21;;;;;;;22.20;20.80;;;;;;;;;;2614554;54;20439;-78
2023/09/10 09:11:52;;;;;;;20.73;19.43;;;;;;;;;;2614668;54;20512;-80
2023/09/10 09:17:22;;;;;;;19.10;17.70;;;;;;;;;;2615239;54;20420;-80
2023/09/10 09:22:55;;;;;;;20.10;18.83;;;;;;;;;;2613671;54;20419;-80
2023/09/10 09:28:27;;;;;;;20.80;19.50;;;;;;;;;;2615613;54;20410;-81
2023/09/10 09:33:57;;;;;;;20.80;19.10;;;;;;;;;;2615728;54;20550;-80
2023/09/10 09:39:26;;;;;;;21.43;19.50;;;;;;;;;;2615923;54;20944;-80
2023/09/10 09:44:57;;;;;;;19.73;18.40;;;;;;;;;;2616586;54;20474;-80
2023/09/10 09:50:27;;;;;;;20.67;19.47;;;;;;;;;;2615228;54;20543;-80
2023/09/10 09:55:59;;;;;;;20.40;18.57;;;;;;;;;;2616693;54;20403;-81
2023/09/10 10:01:28;;;;;;;21.33;19.17;;;;;;;;;;2614755;54;20393;-80
2023/09/10 10:06:58;;;;;;;20.30;18.60;;;;;;;;;;2618321;39;20857;-79
2023/09/10 10:12:28;;;;;;;21.03;19.13;;;;;;;;;;2622393;54;20410;-80
2023/09/10 10:17:58;;;;;;;21.93;20.17;;;;;;;;;;2623282;54;20393;-79
2023/09/10 10:23:28;;;;;;;19.87;18.67;;;;;;;;;;2623854;54;20391;-80
2023/09/10 10:28:58;;;;;;;19.80;18.47;;;;;;;;;;2622782;54;20374;-80
2023/09/10 10:40:38;;;;;;;20.70;19.20;;;;;;;;;;2614611;54;20389;-79
2023/09/10 10:46:09;;;;;;;21.60;19.60;;;;;;;;;;2616480;54;20399;-80
2023/09/10 10:51:41;;;;;;;20.50;19.17;;;;;;;;;;2615714;54;20416;-80
2023/09/10 10:57:11;;;;;;;23.03;21.00;;;;;;;;;;2613463;39;20750;-75
2023/09/10 11:02:40;;;;;;;21.43;19.80;;;;;;;;;;2612672;54;20413;-76
2023/09/10 11:14:18;;;;;;;20.97;19.43;;;;;;;;;;2613931;39;20838;-77
2023/09/10 11:19:47;;;;;;;20.13;18.73;;;;;;;;;;2612918;54;20388;-77
2023/09/10 11:25:16;;;;;;;20.43;19.33;;;;;;;;;;2612769;54;21038;-76
2023/09/10 11:30:45;;;;;;;20.93;19.20;;;;;;;;;;2611711;46;20455;-76
2023/09/10 11:39:54;;;;;;;20.67;18.83;;;;;;;;;;2612916;54;20451;-76
2023/09/10 11:45:23;;;;;;;19.00;17.87;;;;;;;;;;2613059;39;20910;-76
2023/09/10 11:50:55;;;;;;;19.43;18.30;;;;;;;;;;2614405;54;20439;-77
2023/09/10 11:56:25;;;;;;;19.93;18.60;;;;;;;;;;2614851;54;20963;-77
2023/09/10 12:01:56;;;;;;;19.87;18.63;;;;;;;;;;2615789;54;20391;-77
2023/09/10 12:07:26;;;;;;;20.60;18.93;;;;;;;;;;2615784;54;20504;-77
2023/09/10 12:13:01;;;;;;;20.00;18.60;;;;;;;;;;2614424;54;20419;-79
2023/09/10 12:18:31;;;;;;;18.43;17.37;;;;;;;;;;2615537;54;20379;-76
2023/09/10 12:24:00;;;;;;;20.53;18.63;;;;;;;;;;2614441;54;20421;-77
2023/09/10 12:29:30;;;;;;;18.63;17.23;;;;;;;;;;2615193;54;20391;-76
2023/09/10 12:35:00;;;;;;;19.20;17.50;;;;;;;;;;2614982;54;20410;-78
2023/09/10 12:40:30;;;;;;;18.70;17.70;;;;;;;;;;2614469;54;20978;-77
2023/09/10 12:46:00;;;;;;;19.07;17.77;;;;;;;;;;2615164;54;20402;-77
2023/09/10 12:51:29;;;;;;;19.40;17.80;;;;;;;;;;2615149;54;20414;-78
2023/09/10 12:57:03;;;;;;;18.90;17.57;;;;;;;;;;2614533;54;20391;-78
2023/09/10 13:02:33;;;;;;;19.47;17.87;;;;;;;;;;2615374;54;20399;-78
2023/09/10 13:08:04;;;;;;;19.00;17.47;;;;;;;;;;2614511;54;20390;-77
2023/09/10 13:13:33;;;;;;;19.63;18.23;;;;;;;;;;2614230;54;20459;-76
2023/09/10 13:19:03;;;;;;;19.13;17.60;;;;;;;;;;2614797;54;20398;-80
2023/09/10 13:24:33;;;;;;;19.07;17.53;;;;;;;;;;2613527;54;20413;-79
2023/09/10 13:30:03;;;;;;;20.03;18.60;;;;;;;;;;2612756;54;20391;-78
2023/09/10 13:41:40;;;;;;;19.97;18.33;;;;;;;;;;2612844;54;20402;-81
2023/09/10 13:47:09;;;;;;;19.07;17.50;;;;;;;;;;2613227;54;20371;-78
2023/09/10 13:52:40;;;;;;;18.83;17.60;;;;;;;;;;2613870;54;20914;-80
2023/09/10 13:58:09;;;;;;;19.07;17.40;;;;;;;;;;2614836;54;20466;-79
2023/09/10 14:03:39;;;;;;;18.10;17.00;;;;;;;;;;2615135;54;20383;-80
2023/09/10 14:09:08;;;;;;;20.60;19.23;;;;;;;;;;2614790;54;20388;-79
2023/09/10 14:14:38;;;;;;;19.23;17.83;;;;;;;;;;2615119;54;20445;-79
2023/09/10 14:20:08;;;;;;;20.53;18.80;;;;;;;;;;2614371;54;20374;-81
2023/09/10 14:25:38;;;;;;;19.90;18.60;;;;;;;;;;2614503;46;20521;-78
2023/09/10 14:31:08;;;;;;;20.70;19.47;;;;;;;;;;2613885;54;20415;-78
2023/09/10 14:42:44;;;;;;;20.27;18.77;;;;;;;;;;2614178;54;20394;-79
2023/09/10 14:48:14;;;;;;;19.10;17.63;;;;;;;;;;2613031;54;20369;-80
2023/09/10 14:53:45;;;;;;;18.70;17.50;;;;;;;;;;2613015;54;20409;-81
2023/09/10 14:59:14;;;;;;;23.73;19.63;;;;;;;;;;2614730;54;20417;-79
2023/09/10 15:04:44;;;;;;;21.90;19.87;;;;;;;;;;2613149;54;20990;-78
2023/09/10 15:10:15;;;;;;;20.00;18.73;;;;;;;;;;2613426;54;20417;-80
2023/09/10 15:15:44;;;;;;;20.47;18.70;;;;;;;;;;2613539;54;20369;-80
2023/09/10 15:21:14;;;;;;;20.33;19.03;;;;;;;;;;2613424;54;20448;-80
2023/09/10 15:26:43;;;;;;;19.53;18.10;;;;;;;;;;2614000;54;20391;-81
2023/09/10 15:32:13;;;;;;;20.40;18.87;;;;;;;;;;2616815;54;20402;-81
2023/09/10 15:41:27;;;;;;;20.93;19.13;;;;;;;;;;2614969;54;20408;-76
2023/09/10 15:46:57;;;;;;;21.20;19.50;;;;;;;;;;2614660;54;20407;-77
2023/09/10 15:52:26;;;;;;;20.50;19.00;;;;;;;;;;2613673;54;20445;-77
2023/09/10 15:57:56;;;;;;;20.27;18.73;;;;;;;;;;2614907;54;20392;-75
2023/09/10 16:03:26;;;;;;;21.00;19.30;;;;;;;;;;2615194;54;20399;-75
2023/09/10 16:08:56;;;;;;;21.97;20.13;;;;;;;;;;2615482;46;20444;-76
2023/09/10 16:14:25;;;;;;;20.87;19.00;;;;;;;;;;2616314;54;20415;-77
2023/09/10 16:19:55;;;;;;;20.93;19.23;;;;;;;;;;2615293;54;20391;-76
2023/09/10 16:25:25;;;;;;;29.27;26.97;;;;;;;;;;2614592;54;20392;-77
2023/09/10 16:30:55;;;;;;;19.90;18.60;;;;;;;;;;2615836;54;20415;-76
2023/09/10 16:36:28;;;;;;;19.80;18.10;;;;;;;;;;2614876;54;20503;-77
2023/09/10 16:41:58;;;;;;;41.13;38.03;;;;;;;;;;2615231;54;20408;-77
2023/09/10 16:47:27;;;;;;;25.07;23.37;;;;;;;;;;2614112;54;20526;-81
2023/09/10 16:52:57;;;;;;;20.90;18.90;;;;;;;;;;2615433;54;20383;-80
2023/09/10 16:58:27;;;;;;;21.33;20.03;;;;;;;;;;2615537;54;20391;-81
2023/09/10 17:03:57;;;;;;;19.27;17.63;;;;;;;;;;2615653;54;20387;-80
2023/09/10 17:09:27;;;;;;;23.03;21.13;;;;;;;;;;2616071;54;20419;-81
2023/09/10 17:14:57;;;;;;;22.07;20.27;;;;;;;;;;2615708;54;20551;-80
2023/09/10 17:20:26;;;;;;;25.80;23.50;;;;;;;;;;2614794;54;20374;-80
2023/09/10 17:25:57;;;;;;;24.53;22.27;;;;;;;;;;2616420;54;20391;-81
2023/09/10 17:31:27;;;;;;;23.10;21.27;;;;;;;;;;2616489;54;20436;-79
2023/09/10 17:36:57;;;;;;;23.73;21.70;;;;;;;;;;2615226;54;20406;-82
2023/09/10 17:42:27;;;;;;;21.07;19.67;;;;;;;;;;2614150;54;20398;-84
2023/09/10 17:47:57;;;;;;;23.20;21.20;;;;;;;;;;2616003;54;20387;-81
2023/09/10 17:53:26;;;;;;;24.60;22.20;;;;;;;;;;2615362;54;20421;-81
2023/09/10 17:58:56;;;;;;;25.97;22.70;;;;;;;;;;2616222;39;20807;-81
2023/09/10 18:04:26;;;;;;;23.97;21.87;;;;;;;;;;2614734;39;20720;-83
2023/09/10 18:09:56;;;;;;;24.30;21.67;;;;;;;;;;2615165;54;20383;-82
2023/09/10 18:15:25;;;;;;;24.00;21.50;;;;;;;;;;2616209;39;20465;-83
2023/09/10 18:20:55;;;;;;;23.90;22.03;;;;;;;;;;2615183;54;20391;-82
2023/09/10 18:26:25;;;;;;;22.83;21.00;;;;;;;;;;2615246;54;20435;-81
2023/09/10 18:31:54;;;;;;;24.10;22.00;;;;;;;;;;2615456;54;21151;-84
2023/09/10 18:43:31;;;;;;;23.67;21.60;;;;;;;;;;2615700;54;20389;-82
2023/09/10 18:49:02;;;;;;;23.03;21.10;;;;;;;;;;2616543;54;20932;-81
2023/09/10 18:54:32;;;;;;;23.10;21.07;;;;;;;;;;2616427;54;20459;-83
2023/09/10 19:00:02;;;;;;;23.70;21.27;;;;;;;;;;2615240;54;20449;-83
2023/09/10 19:05:32;;;;;;;23.93;21.90;;;;;;;;;;2615242;54;20439;-82
2023/09/10 19:11:02;;;;;;;25.43;22.20;;;;;;;;;;2616307;39;20774;-82
2023/09/10 19:16:32;;;;;;;22.87;21.07;;;;;;;;;;2616023;54;20427;-82
2023/09/10 19:22:01;;;;;;;23.50;21.13;;;;;;;;;;2614990;54;20383;-81
2023/09/10 19:27:31;;;;;;;24.40;22.30;;;;;;;;;;2615561;54;20929;-82
2023/09/10 19:33:01;;;;;;;23.33;21.30;;;;;;;;;;2616206;54;20399;-81
2023/09/10 19:38:30;;;;;;;24.70;22.07;;;;;;;;;;2615260;54;20501;-82
2023/09/10 19:44:00;;;;;;;23.63;21.63;;;;;;;;;;2616171;54;21376;-79
2023/09/10 19:49:32;;;;;;;29.00;23.63;;;;;;;;;;2615645;54;20386;-81
2023/09/10 19:55:03;;;;;;;22.97;21.07;;;;;;;;;;2615892;54;20379;-81
2023/09/10 20:00:33;;;;;;;25.63;23.33;;;;;;;;;;2616156;54;20412;-83
2023/09/10 20:03:18;;;;;;;29.10;24.40;;;;;;;;;;2615582;47;20427;-79
2023/09/10 20:05:44;;;;;;;25.67;23.00;;;;;;;;;;2615536;47;20423;-81
2023/09/10 20:11:15;;;;;;;24.60;22.30;;;;;;;;;;2617015;31;20808;-81
2023/09/10 20:16:44;;;;;;;29.23;24.53;;;;;;;;;;2616136;54;20379;-78
2023/09/10 20:22:16;;;;;;;24.40;22.10;;;;;;;;;;2618115;54;20479;-75
2023/09/10 20:27:47;;;;;;;24.57;22.57;;;;;;;;;;2614898;54;20499;-75
2023/09/10 20:33:17;;;;;;;23.43;21.30;;;;;;;;;;2615838;54;20455;-77
2023/09/10 20:48:17;;;;;;;25.30;22.90;;;;;;;;;;2614524;54;20413;-78
2023/09/10 20:53:46;;;;;;;24.50;22.20;;;;;;;;;;2614754;54;20483;-78
2023/09/10 20:59:16;;;;;;;25.20;22.70;;;;;;;;;;2613909;54;20921;-78
2023/09/10 21:04:45;;;;;;;25.20;21.07;;;;;;;;;;2613957;54;20383;-78
2023/09/10 21:10:14;;;;;;;26.20;22.70;;;;;;;;;;2613254;54;20375;-79
2023/09/10 21:15:44;;;;;;;25.03;22.37;;;;;;;;;;2614215;54;20371;-79
2023/09/10 21:21:13;;;;;;;26.17;23.47;;;;;;;;;;2614484;54;20487;-78
2023/09/10 21:26:43;;;;;;;28.47;25.67;;;;;;;;;;2615395;54;20407;-78
2023/09/10 21:32:13;;;;;;;24.13;21.73;;;;;;;;;;2615440;54;20522;-77
2023/09/10 21:37:42;;;;;;;28.17;21.80;;;;;;;;;;2615426;54;20419;-79
2023/09/10 21:43:12;;;;;;;27.13;23.30;;;;;;;;;;2615011;54;20426;-75
2023/09/10 21:48:42;;;;;;;24.67;22.07;;;;;;;;;;2615607;54;20420;-76
2023/09/10 21:54:17;;;;;;;23.93;21.73;;;;;;;;;;2615286;54;20528;-77
2023/09/10 21:59:47;;;;;;;24.43;20.67;;;;;;;;;;2614716;54;20406;-77
2023/09/10 22:05:16;;;;;;;23.20;20.73;;;;;;;;;;2615177;54;20499;-78
2023/09/10 22:10:46;;;;;;;23.07;20.50;;;;;;;;;;2615708;54;20399;-78
2023/09/10 22:16:16;;;;;;;29.40;20.97;;;;;;;;;;2615511;54;20496;-76
2023/09/10 22:21:46;;;;;;;29.93;22.20;;;;;;;;;;2615090;54;20946;-76
2023/09/10 22:27:16;;;;;;;22.80;20.70;;;;;;;;;;2615341;54;20379;-76
2023/09/10 22:32:46;;;;;;;25.13;19.70;;;;;;;;;;2615403;54;20456;-76
2023/09/10 22:44:23;;;;;;;24.23;21.97;;;;;;;;;;2615827;54;20395;-81
2023/09/10 22:49:53;;;;;;;25.70;23.00;;;;;;;;;;2615184;54;20977;-81
2023/09/10 22:55:22;;;;;;;27.87;20.63;;;;;;;;;;2614325;54;20949;-82
2023/09/10 23:00:52;;;;;;;24.00;20.83;;;;;;;;;;2615603;47;21085;-81
2023/09/10 23:06:22;;;;;;;24.60;22.20;;;;;;;;;;2614933;54;20536;-82
2023/09/10 23:11:52;;;;;;;27.37;22.03;;;;;;;;;;2614049;54;20506;-81
2023/09/10 23:17:23;;;;;;;23.43;21.13;;;;;;;;;;2615570;54;20418;-80
2023/09/10 23:23:01;;;;;;;23.37;20.23;;;;;;;;;;2615004;54;20618;-82
2023/09/10 23:28:31;;;;;;;24.37;21.90;;;;;;;;;;2614922;54;20427;-79
2023/09/10 23:34:01;;;;;;;27.90;21.10;;;;;;;;;;2615850;39;20806;-82
2023/09/10 23:43:15;;;;;;;22.23;19.90;;;;;;;;;;2615061;54;20933;-83
2023/09/10 23:48:44;;;;;;;25.30;21.27;;;;;;;;;;2614710;54;21161;-79
2023/09/10 23:54:14;;;;;;;23.47;21.03;;;;;;;;;;2616521;54;20390;-78
2023/09/10 23:59:43;;;;;;;27.90;21.23;;;;;;;;;;2616799;39;20744;-78
